This is the latest recevied weather packets stored in our database for station/object W5COG. If no packets are shown the sender has not sent any weather packets the latest 10 day(s).
| Time | Temp. | Humidity | Pressure | Rain* | Wind** | Luminosity | Snow |
|---|---|---|---|---|---|---|---|
| 1777566326 | 13.89° C | 66% | 1019.3 hPa | 0 mm | - | 251 W/m² | - |
| 1777565726 | 13.89° C | 66% | 1019.3 hPa | 0 mm | - | 236 W/m² | - |
| 1777563626 | 13.33° C | 67% | 1019.2 hPa | 0 mm | - | 250 W/m² | - |
| 1777563326 | 12.78° C | 66% | 1019.2 hPa | 0 mm | - | 236 W/m² | - |
| 1777563026 | 12.78° C | 67% | 1019.2 hPa | 0 mm | - | 240 W/m² | - |
| 1777562726 | 12.78° C | 66% | 1019 hPa | 0 mm | - | 216 W/m² | - |
| 1777560326 | 12.22° C | 71% | 1018.3 hPa | 0 mm | - | 195 W/m² | - |
| 1777559126 | 11.67° C | 72% | 1018.3 hPa | 0 mm | - | 217 W/m² | - |
| 1777558826 | 11.67° C | 73% | 1018.3 hPa | 0 mm | - | 225 W/m² | - |
| 1777557326 | 11.67° C | 74% | 1018.6 hPa | 0 mm | - | 247 W/m² | - |
| 1777557026 | 11.11° C | 76% | 1018.7 hPa | 0 mm | - | 220 W/m² | - |
| 1777556126 | 11.11° C | 76% | 1018.4 hPa | 0 mm | - | 184 W/m² | - |
| 1777555526 | 10.56° C | 77% | 1018.5 hPa | 0 mm | - | 192 W/m² | - |
| 1777554926 | 10.56° C | 77% | 1018.6 hPa | 0 mm | - | 139 W/m² | - |
| 1777554626 | 10.56° C | 76% | 1018.7 hPa | 0 mm | - | 114 W/m² | - |
| 1777554327 | 10.56° C | 76% | 1018.6 hPa | 0 mm | - | 93 W/m² | - |
| 1777554026 | 10.56° C | 76% | 1018.7 hPa | 0 mm | - | 86 W/m² | - |
| 1777553726 | 10° C | 76% | 1018.7 hPa | 0 mm | - | 90 W/m² | - |
| 1777552526 | 10° C | 79% | 1017.9 hPa | 0 mm | - | 86 W/m² | - |
| 1777552226 | 10° C | 79% | 1017.9 hPa | 0 mm | - | 100 W/m² | - |
| 1777551926 | 10° C | 79% | 1017.7 hPa | 0 mm | - | 79 W/m² | - |
| 1777551626 | 9.44° C | 79% | 1017.8 hPa | 0 mm | - | 64 W/m² | - |
| 1777551326 | 9.44° C | 79% | 1017.7 hPa | 0 mm | - | 53 W/m² | - |
| 1777551026 | 9.44° C | 80% | 1017.6 hPa | 0 mm | - | 50 W/m² | - |
| 1777550726 | 9.44° C | 80% | 1017.6 hPa | 0 mm | - | 40 W/m² | - |
* Rain latest hour (hover to see other rain measurements)
** Current wind speed in m/s (hover to see current wind gust speed)